logo
Rechercher aéroport 
image banner adimage banner adimage banner ad
image banner ad

YMHX - Mount Mccutcheon

Situé à Southwest, Australia

ICAO - , IATA -

Données fournies par Airmate  

Information générale

Coordonnées: S42°22'4" E145°39'24"
Élévation : 921 feet MSL.
Variation magnétique : 14° East
Voir autres Aéroports à Tasmania

Données opérationnelles

Special qualification required
Heure actuelle UTC:
Heure actuelle locale:
Météo à : - ( 0 km )
METAR: PASK 220912Z AUTO 05006KT 2SM BR BKN001 OVC055 03/02 A2974 RMK AO2 VIS 1 1/2V4
Voir NOTAMs / SUP AIP / TFR affectant cet aéroport [VIEW]
Fréquences de communication: [VIEW]

Pistes:

Coordonnées de l'aéroport

Adresse: Southwest Australia

Vue satellite de YMHX